Time;durP1;ratioP1;P1;durP2;ratioP2;P2;SDS_P1;SDS_P2;PMS_P1;PMS_P2;Temp;Humidity;BMP_temperature;BMP_pressure;BME280_temperature;BME280_humidity;BME280_pressure;Samples;Min_cycle;Max_cycle;Signal;HPM_P1;HPM_P2
2021/05/25 00:01:53;;;;;;;2.87;1.53;;;10.70;99.90;;;;;;5063457;28;20225;-71
2021/05/25 00:04:20;;;;;;;1.53;1.43;;;10.60;99.90;;;;;;5063730;28;20538;-72
2021/05/25 00:06:47;;;;;;;1.43;1.33;;;10.80;99.90;;;;;;5067417;28;20244;-70
2021/05/25 00:09:14;;;;;;;1.50;1.40;;;10.90;99.90;;;;;;5064342;28;20664;-70
2021/05/25 00:11:41;;;;;;;2.50;1.70;;;11.00;99.90;;;;;;5062148;28;20221;-71
2021/05/25 00:14:07;;;;;;;4.17;1.60;;;11.00;99.90;;;;;;5065166;28;20202;-71
2021/05/25 00:16:34;;;;;;;1.87;1.60;;;11.10;99.90;;;;;;5069020;28;20217;-72
2021/05/25 00:19:00;;;;;;;1.90;1.60;;;11.10;99.90;;;;;;5062932;28;20218;-71
2021/05/25 00:21:27;;;;;;;2.33;1.50;;;11.00;99.90;;;;;;5068911;28;20198;-71
2021/05/25 00:23:54;;;;;;;2.87;1.90;;;11.00;99.90;;;;;;5068071;28;20209;-72
2021/05/25 00:26:21;;;;;;;1.73;1.43;;;11.10;99.90;;;;;;5058225;28;20211;-70
2021/05/25 00:28:47;;;;;;;2.47;1.70;;;11.20;99.90;;;;;;5063696;28;20699;-72
2021/05/25 00:31:14;;;;;;;2.63;1.70;;;11.20;99.90;;;;;;5069302;28;20295;-72
2021/05/25 00:33:40;;;;;;;4.13;1.83;;;11.30;99.90;;;;;;5065987;28;20252;-71
2021/05/25 00:36:09;;;;;;;2.67;1.63;;;11.10;99.90;;;;;;5068715;28;20664;-70
2021/05/25 00:38:36;;;;;;;2.67;2.00;;;11.20;99.90;;;;;;5053691;28;20205;-71
2021/05/25 00:41:04;;;;;;;3.27;1.70;;;11.00;99.90;;;;;;5068000;28;20648;-70
2021/05/25 00:43:31;;;;;;;2.13;1.30;;;11.10;99.90;;;;;;5069225;28;20216;-72
2021/05/25 00:45:57;;;;;;;3.47;1.83;;;11.00;99.90;;;;;;5055300;28;20195;-72
2021/05/25 00:48:24;;;;;;;2.20;1.50;;;11.10;99.90;;;;;;5067746;28;20206;-72
2021/05/25 00:50:50;;;;;;;2.30;1.63;;;11.10;99.90;;;;;;5069999;28;20206;-72
2021/05/25 00:53:18;;;;;;;2.20;1.50;;;11.20;99.90;;;;;;5067427;28;20360;-72
2021/05/25 00:55:44;;;;;;;2.23;1.73;;;11.30;99.90;;;;;;5067559;28;20528;-72
2021/05/25 00:58:12;;;;;;;1.97;1.83;;;11.40;99.90;;;;;;5062583;28;20601;-71
2021/05/25 01:00:40;;;;;;;2.87;2.00;;;11.50;99.90;;;;;;5064821;28;20202;-72
2021/05/25 01:03:08;;;;;;;1.80;1.50;;;11.40;99.90;;;;;;5068257;28;20198;-71
2021/05/25 01:05:35;;;;;;;2.37;2.00;;;11.40;99.90;;;;;;5067512;28;20209;-72
2021/05/25 01:08:02;;;;;;;4.13;1.63;;;11.40;99.90;;;;;;5065102;28;20640;-71
2021/05/25 01:10:31;;;;;;;2.20;1.67;;;11.40;99.90;;;;;;5069087;28;20230;-71
2021/05/25 01:13:01;;;;;;;1.67;1.40;;;11.40;99.90;;;;;;5064473;28;20237;-71
2021/05/25 01:15:28;;;;;;;1.83;1.50;;;11.40;99.90;;;;;;5069203;28;20252;-71
2021/05/25 01:17:55;;;;;;;2.07;1.57;;;11.40;99.90;;;;;;5069694;28;20437;-71
2021/05/25 01:20:24;;;;;;;1.50;1.40;;;11.30;99.90;;;;;;5068693;28;20305;-71
2021/05/25 01:22:51;;;;;;;3.73;1.53;;;11.40;99.90;;;;;;5057327;28;20194;-71
2021/05/25 01:25:18;;;;;;;4.30;1.90;;;11.50;99.90;;;;;;5068128;28;20198;-71
2021/05/25 01:27:50;;;;;;;2.77;1.80;;;11.50;99.90;;;;;;5069318;28;20210;-71
2021/05/25 01:30:19;;;;;;;2.13;1.63;;;11.50;99.90;;;;;;5060046;28;20536;-71
2021/05/25 01:32:45;;;;;;;3.63;1.37;;;11.50;99.90;;;;;;5069963;28;20252;-70
2021/05/25 01:35:12;;;;;;;1.80;1.70;;;11.40;99.90;;;;;;5067645;28;20203;-70
2021/05/25 01:37:39;;;;;;;2.13;1.73;;;11.50;99.90;;;;;;5070070;28;20204;-71
2021/05/25 01:40:08;;;;;;;2.33;1.60;;;11.50;99.90;;;;;;5067165;28;20202;-71
2021/05/25 01:42:36;;;;;;;1.60;1.47;;;11.50;99.90;;;;;;5069004;28;20198;-71
2021/05/25 01:45:05;;;;;;;2.17;1.97;;;11.50;99.90;;;;;;5070010;28;20198;-72
2021/05/25 01:47:31;;;;;;;3.00;1.70;;;11.50;99.90;;;;;;5071040;28;20221;-70
2021/05/25 01:50:11;;;;;;;3.33;1.67;;;11.50;99.90;;;;;;5066887;28;20206;-71
2021/05/25 01:52:38;;;;;;;1.63;1.53;;;11.50;99.90;;;;;;5064758;28;20664;-71
2021/05/25 01:55:08;;;;;;;1.67;1.57;;;11.40;99.90;;;;;;5064837;28;20211;-71
2021/05/25 01:57:36;;;;;;;2.23;1.70;;;11.50;99.90;;;;;;5069736;28;20389;-71
2021/05/25 02:00:05;;;;;;;4.37;1.60;;;11.40;99.90;;;;;;5067097;28;20206;-71
2021/05/25 02:02:32;;;;;;;2.73;1.60;;;11.50;99.90;;;;;;5064592;28;20206;-71
2021/05/25 02:04:58;;;;;;;2.67;1.60;;;11.50;99.90;;;;;;5065774;28;20206;-71
2021/05/25 02:07:25;;;;;;;1.90;1.57;;;11.60;99.90;;;;;;5069720;28;20205;-71
2021/05/25 02:09:51;;;;;;;3.03;1.40;;;11.50;99.90;;;;;;5067282;28;20953;-71
2021/05/25 02:12:19;;;;;;;2.07;1.33;;;11.30;99.90;;;;;;5068088;28;20226;-71
2021/05/25 02:14:45;;;;;;;1.63;1.53;;;11.30;99.90;;;;;;5073289;28;20206;-71
2021/05/25 02:17:12;;;;;;;2.67;1.60;;;11.20;99.90;;;;;;5070975;28;20255;-71
2021/05/25 02:19:38;;;;;;;1.43;1.33;;;11.30;99.90;;;;;;5070082;28;20234;-71
2021/05/25 02:22:05;;;;;;;1.50;1.30;;;11.30;99.90;;;;;;5067054;28;20202;-71
2021/05/25 02:24:31;;;;;;;1.50;1.37;;;11.10;99.90;;;;;;5071338;28;20217;-71
2021/05/25 02:26:58;;;;;;;1.67;0.90;;;11.00;99.90;;;;;;5072420;28;20206;-71
2021/05/25 02:29:25;;;;;;;1.00;1.00;;;11.00;99.90;;;;;;5071381;28;20381;-71
2021/05/25 02:31:51;;;;;;;1.53;1.43;;;11.00;99.90;;;;;;5056193;28;20245;-71
2021/05/25 02:34:18;;;;;;;2.27;1.23;;;10.90;99.90;;;;;;5065164;28;20202;-71
2021/05/25 02:36:45;;;;;;;1.30;1.20;;;10.90;99.90;;;;;;5067655;28;20195;-71
2021/05/25 02:39:11;;;;;;;2.73;1.30;;;10.90;99.90;;;;;;5069706;28;20606;-70
2021/05/25 02:41:38;;;;;;;1.20;1.10;;;11.00;99.90;;;;;;5071502;28;20224;-70
2021/05/25 02:44:05;;;;;;;1.50;1.13;;;10.90;99.90;;;;;;5071515;28;20214;-72
2021/05/25 02:46:32;;;;;;;1.20;1.00;;;11.00;99.90;;;;;;5065338;28;20206;-71
2021/05/25 02:48:59;;;;;;;4.20;1.10;;;10.90;99.90;;;;;;5071314;28;20609;-71
2021/05/25 02:51:25;;;;;;;1.73;1.17;;;11.00;99.90;;;;;;5073504;28;20194;-72
2021/05/25 02:53:52;;;;;;;2.10;0.97;;;11.00;99.90;;;;;;5071580;28;20267;-71
2021/05/25 02:56:18;;;;;;;1.20;1.03;;;11.10;99.90;;;;;;5073341;28;20202;-72
2021/05/25 02:58:45;;;;;;;1.00;0.80;;;11.10;99.90;;;;;;5071996;28;20194;-71
2021/05/25 03:01:11;;;;;;;1.20;0.90;;;11.10;99.90;;;;;;5060968;28;20206;-71
2021/05/25 03:03:39;;;;;;;2.20;1.03;;;11.10;99.90;;;;;;5068799;28;20206;-71
2021/05/25 03:06:05;;;;;;;1.00;0.90;;;11.00;99.90;;;;;;5064069;28;20212;-71
2021/05/25 03:08:32;;;;;;;1.43;0.87;;;11.10;99.90;;;;;;5067326;28;20205;-71
2021/05/25 03:10:58;;;;;;;3.17;1.40;;;10.90;99.90;;;;;;5064790;28;20203;-72
2021/05/25 03:13:25;;;;;;;2.43;1.33;;;10.90;99.90;;;;;;5069683;28;20678;-71
2021/05/25 03:15:51;;;;;;;2.47;0.73;;;10.90;99.90;;;;;;5068055;28;20665;-71
2021/05/25 03:18:18;;;;;;;1.53;1.30;;;10.90;99.90;;;;;;5062327;28;20198;-71
2021/05/25 03:20:48;;;;;;;1.07;1.03;;;10.90;99.90;;;;;;5071891;28;20194;-71
2021/05/25 03:23:15;;;;;;;1.87;1.00;;;11.00;99.90;;;;;;5071320;28;20198;-71
2021/05/25 03:25:42;;;;;;;2.33;0.93;;;10.90;99.90;;;;;;5071362;28;20202;-71
2021/05/25 03:28:09;;;;;;;1.20;0.80;;;10.90;99.90;;;;;;5072232;28;20230;-71
2021/05/25 03:30:37;;;;;;;1.00;1.00;;;10.80;99.90;;;;;;5072136;28;20202;-71
2021/05/25 03:33:04;;;;;;;1.07;0.90;;;10.80;99.90;;;;;;5071506;28;20409;-69
2021/05/25 03:35:31;;;;;;;1.27;1.10;;;10.80;99.90;;;;;;5069841;28;20682;-70
2021/05/25 03:37:58;;;;;;;1.23;0.80;;;10.70;99.90;;;;;;5069229;28;20210;-70
2021/05/25 03:40:25;;;;;;;2.30;0.73;;;10.70;99.90;;;;;;5063675;28;20541;-70
2021/05/25 03:42:54;;;;;;;1.10;1.00;;;10.70;99.90;;;;;;5070782;28;20609;-70
2021/05/25 03:45:21;;;;;;;1.50;0.97;;;10.70;99.90;;;;;;5061556;28;20206;-71
2021/05/25 03:47:48;;;;;;;1.50;1.07;;;10.70;99.90;;;;;;5051851;28;20256;-72
2021/05/25 03:50:16;;;;;;;1.00;0.80;;;10.70;99.90;;;;;;5058754;28;20710;-71
2021/05/25 03:52:45;;;;;;;4.50;1.63;;;10.70;99.90;;;;;;5060179;28;20257;-71
2021/05/25 03:55:21;;;;;;;2.60;2.27;;;10.80;99.90;;;;;;5057880;28;20230;-71
2021/05/25 04:00:32;;;;;;;1.00;0.70;;;10.80;99.90;;;;;;5054418;28;20210;-71
2021/05/25 04:02:59;;;;;;;1.10;1.00;;;10.80;99.90;;;;;;5062280;28;20232;-72
2021/05/25 04:05:25;;;;;;;1.03;1.00;;;10.70;99.90;;;;;;5067928;28;20206;-72
2021/05/25 04:07:52;;;;;;;1.90;0.70;;;10.80;99.90;;;;;;5069172;28;20315;-70
2021/05/25 04:10:19;;;;;;;1.30;0.90;;;10.60;99.90;;;;;;5053843;28;20204;-71
2021/05/25 04:12:46;;;;;;;2.43;1.10;;;10.60;99.90;;;;;;5069822;28;20253;-72
2021/05/25 04:15:13;;;;;;;2.70;1.00;;;10.50;99.90;;;;;;5067796;28;20727;-72
2021/05/25 04:17:41;;;;;;;2.13;0.93;;;10.20;99.90;;;;;;5070076;28;20198;-72
2021/05/25 04:20:09;;;;;;;2.30;0.70;;;10.00;99.90;;;;;;5066652;28;20669;-72
2021/05/25 04:22:36;;;;;;;1.53;0.60;;;9.70;99.90;;;;;;5068644;28;20198;-72
2021/05/25 04:25:04;;;;;;;1.23;0.80;;;9.60;99.90;;;;;;5066471;28;20198;-72
2021/05/25 04:27:32;;;;;;;2.00;0.87;;;9.60;99.90;;;;;;5069542;28;20741;-72
2021/05/25 04:29:59;;;;;;;2.13;0.80;;;9.60;99.90;;;;;;5069983;28;20244;-71
2021/05/25 04:32:25;;;;;;;2.47;0.83;;;9.80;99.90;;;;;;5067546;28;20210;-71
2021/05/25 04:34:52;;;;;;;0.90;0.90;;;9.70;99.90;;;;;;5066256;28;20277;-73
2021/05/25 04:37:18;;;;;;;0.87;0.70;;;9.60;99.90;;;;;;5065861;28;20198;-72
2021/05/25 04:39:45;;;;;;;3.33;0.90;;;9.40;99.90;;;;;;5063390;28;20241;-72
2021/05/25 04:42:11;;;;;;;1.60;0.83;;;9.40;99.90;;;;;;5063226;28;20644;-70
2021/05/25 04:44:39;;;;;;;0.90;0.90;;;9.60;99.90;;;;;;5067593;28;20210;-70
2021/05/25 04:47:05;;;;;;;2.23;1.20;;;9.40;99.90;;;;;;5067561;28;20217;-71
2021/05/25 04:49:33;;;;;;;1.20;1.10;;;9.60;99.90;;;;;;5059190;28;20233;-70
2021/05/25 04:52:00;;;;;;;0.83;0.83;;;9.60;99.90;;;;;;5069963;28;20237;-70
2021/05/25 04:54:26;;;;;;;1.10;0.90;;;9.70;99.90;;;;;;5067635;28;20209;-71
2021/05/25 04:56:54;;;;;;;1.30;1.20;;;9.80;99.90;;;;;;5069449;28;20203;-71
2021/05/25 04:59:21;;;;;;;0.70;0.70;;;10.10;99.90;;;;;;5067998;28;20215;-72
2021/05/25 05:01:48;;;;;;;2.50;1.10;;;10.20;99.90;;;;;;5068292;28;20702;-71
2021/05/25 05:04:15;;;;;;;2.00;1.10;;;10.30;99.90;;;;;;5069926;28;20244;-71
2021/05/25 05:06:42;;;;;;;1.67;0.87;;;10.60;99.90;;;;;;5065273;28;20794;-71
2021/05/25 05:09:08;;;;;;;3.00;1.00;;;10.80;99.90;;;;;;5065275;28;20209;-72
2021/05/25 05:11:35;;;;;;;1.90;0.90;;;10.80;99.90;;;;;;5064952;28;20203;-71
2021/05/25 05:14:02;;;;;;;1.20;0.93;;;10.80;99.90;;;;;;5063182;28;20644;-71
2021/05/25 05:16:29;;;;;;;2.60;0.97;;;10.90;99.90;;;;;;5063578;28;20195;-72
2021/05/25 05:18:56;;;;;;;1.60;1.07;;;10.80;99.90;;;;;;5061456;28;20729;-72
2021/05/25 05:21:22;;;;;;;1.80;1.30;;;10.80;99.90;;;;;;5063866;28;20260;-72
2021/05/25 05:23:49;;;;;;;2.13;0.90;;;10.80;99.90;;;;;;5067713;28;20202;-71
2021/05/25 05:26:15;;;;;;;1.20;0.97;;;10.90;99.90;;;;;;5069584;28;20208;-71
2021/05/25 05:28:42;;;;;;;2.57;0.90;;;10.90;99.90;;;;;;5068533;28;20199;-71
2021/05/25 05:31:09;;;;;;;0.90;0.83;;;11.30;99.90;;;;;;5068331;28;20210;-71
2021/05/25 05:33:35;;;;;;;2.33;1.07;;;11.30;99.90;;;;;;5066665;28;20218;-70
2021/05/25 05:36:03;;;;;;;2.73;0.90;;;12.00;99.90;;;;;;5067282;28;20244;-71
2021/05/25 05:38:29;;;;;;;0.90;0.90;;;12.40;99.90;;;;;;5066916;28;20203;-71
2021/05/25 05:41:03;;;;;;;1.67;0.80;;;12.20;99.90;;;;;;5061206;28;20668;-71
2021/05/25 05:43:30;;;;;;;1.67;0.77;;;11.90;99.90;;;;;;5069374;28;20621;-71
2021/05/25 05:45:58;;;;;;;1.57;0.90;;;12.00;99.90;;;;;;5069707;28;20240;-71
2021/05/25 05:48:25;;;;;;;1.87;1.07;;;12.10;99.90;;;;;;5068623;28;20660;-71
2021/05/25 05:50:52;;;;;;;1.03;0.83;;;11.80;99.90;;;;;;5069447;28;20199;-71
2021/05/25 05:53:19;;;;;;;2.37;1.30;;;11.70;99.90;;;;;;5069179;28;20214;-71
2021/05/25 05:55:45;;;;;;;3.23;1.03;;;11.60;99.90;;;;;;5070200;28;20264;-72
2021/05/25 05:58:12;;;;;;;1.03;1.03;;;11.60;99.90;;;;;;5069361;28;20202;-71
2021/05/25 06:00:41;;;;;;;1.60;1.00;;;11.40;99.90;;;;;;5068357;28;20206;-71
2021/05/25 06:03:07;;;;;;;2.97;1.50;;;11.40;99.90;;;;;;5068402;28;20210;-71
2021/05/25 06:05:35;;;;;;;1.37;0.80;;;11.50;99.90;;;;;;5067872;28;20206;-71
2021/05/25 06:08:02;;;;;;;2.90;0.93;;;11.60;99.90;;;;;;5067730;28;20213;-71
2021/05/25 06:10:31;;;;;;;2.10;0.90;;;11.50;99.90;;;;;;5069654;28;20198;-71
2021/05/25 06:12:58;;;;;;;0.93;0.93;;;11.60;99.90;;;;;;5069094;28;20222;-71
2021/05/25 06:15:25;;;;;;;1.57;1.07;;;11.50;99.90;;;;;;5069375;28;20198;-71
2021/05/25 06:17:52;;;;;;;2.13;1.03;;;11.50;99.90;;;;;;5069272;28;20207;-71
2021/05/25 06:20:18;;;;;;;1.83;1.00;;;11.40;99.90;;;;;;5068979;28;20198;-71
2021/05/25 06:22:46;;;;;;;4.93;1.50;;;11.40;99.90;;;;;;5069985;28;20718;-71
2021/05/25 06:25:16;;;;;;;1.47;0.83;;;11.30;99.90;;;;;;5069052;28;20575;-72
2021/05/25 06:27:44;;;;;;;1.40;1.00;;;11.30;99.90;;;;;;5066217;28;20207;-71
2021/05/25 06:30:12;;;;;;;2.00;1.40;;;11.40;99.90;;;;;;5068225;28;20245;-71
2021/05/25 06:32:38;;;;;;;2.17;1.30;;;11.60;99.90;;;;;;5069394;28;20214;-71
2021/05/25 06:35:06;;;;;;;1.10;0.97;;;11.60;99.90;;;;;;5066685;28;20624;-71
2021/05/25 06:37:33;;;;;;;3.17;1.20;;;11.60;99.90;;;;;;5068015;28;20203;-71
2021/05/25 06:40:00;;;;;;;1.03;0.93;;;11.60;99.90;;;;;;5068581;28;20225;-72
2021/05/25 06:42:26;;;;;;;2.77;0.80;;;11.60;99.90;;;;;;5070493;28;20224;-72
2021/05/25 06:44:53;;;;;;;2.03;1.03;;;11.50;99.90;;;;;;5069113;28;20218;-71
2021/05/25 06:47:20;;;;;;;1.73;1.10;;;11.60;99.90;;;;;;5069526;28;20195;-71
2021/05/25 06:49:46;;;;;;;0.90;0.90;;;11.70;99.90;;;;;;5067231;28;20210;-71
2021/05/25 06:52:13;;;;;;;1.20;1.20;;;11.70;99.90;;;;;;5072236;28;20214;-71
2021/05/25 06:54:39;;;;;;;2.90;1.57;;;11.80;99.90;;;;;;5071720;28;20607;-71
2021/05/25 06:57:07;;;;;;;3.50;1.03;;;11.60;99.90;;;;;;5070411;28;20202;-71
2021/05/25 06:59:36;;;;;;;1.40;0.90;;;11.50;99.90;;;;;;5067549;28;20203;-71
2021/05/25 07:02:03;;;;;;;2.03;1.07;;;11.60;99.90;;;;;;5063495;28;20210;-72
2021/05/25 07:04:30;;;;;;;0.77;0.60;;;11.70;99.90;;;;;;5071496;28;20255;-71
2021/05/25 07:06:57;;;;;;;4.33;1.03;;;11.70;99.90;;;;;;5070763;28;20206;-71
2021/05/25 07:09:24;;;;;;;2.27;0.93;;;11.80;99.90;;;;;;5066685;28;20229;-71
2021/05/25 07:11:50;;;;;;;1.13;0.90;;;11.70;99.90;;;;;;5061386;28;20242;-72
2021/05/25 07:14:17;;;;;;;1.23;0.80;;;11.60;99.90;;;;;;5065104;28;20203;-71
2021/05/25 07:16:43;;;;;;;0.80;0.80;;;11.70;99.90;;;;;;5069399;28;20195;-71
2021/05/25 07:19:11;;;;;;;1.27;0.60;;;12.00;99.90;;;;;;5065243;28;20214;-71
2021/05/25 07:21:37;;;;;;;0.70;0.70;;;12.10;99.90;;;;;;5063007;28;20540;-72
2021/05/25 07:24:04;;;;;;;3.10;0.80;;;12.10;99.90;;;;;;5062922;28;20206;-72
2021/05/25 07:26:32;;;;;;;1.00;0.90;;;12.00;99.90;;;;;;5065254;28;20575;-72
2021/05/25 07:28:58;;;;;;;1.13;0.80;;;12.00;99.90;;;;;;5065600;28;20198;-72
2021/05/25 07:31:25;;;;;;;4.07;0.90;;;12.20;99.90;;;;;;5064246;28;20238;-72
2021/05/25 07:33:51;;;;;;;1.53;0.90;;;12.20;99.90;;;;;;5064640;28;20748;-72
2021/05/25 07:36:19;;;;;;;2.77;0.83;;;12.30;99.90;;;;;;5067496;28;20214;-72
2021/05/25 07:38:46;;;;;;;0.83;0.80;;;12.20;99.90;;;;;;5065563;28;20237;-72
2021/05/25 07:41:13;;;;;;;2.23;0.60;;;12.00;99.90;;;;;;5061886;28;20210;-72
2021/05/25 07:43:39;;;;;;;2.20;0.70;;;12.00;99.90;;;;;;5066069;28;20228;-72
2021/05/25 07:46:06;;;;;;;1.37;0.70;;;12.30;99.90;;;;;;5061592;28;20229;-72
2021/05/25 07:48:32;;;;;;;0.53;0.50;;;12.40;99.90;;;;;;5063014;28;20210;-72
2021/05/25 07:50:59;;;;;;;2.57;0.90;;;12.40;99.90;;;;;;5067776;28;20293;-72
2021/05/25 07:53:26;;;;;;;0.50;0.50;;;12.60;99.90;;;;;;5065322;28;20226;-72
2021/05/25 07:55:53;;;;;;;0.73;0.50;;;12.60;99.90;;;;;;5067562;28;20471;-72
2021/05/25 07:58:19;;;;;;;0.97;0.57;;;12.80;99.90;;;;;;5062027;28;20210;-72
2021/05/25 08:00:46;;;;;;;1.17;0.40;;;12.90;99.90;;;;;;5064516;28;20198;-72
2021/05/25 08:03:13;;;;;;;0.40;0.40;;;12.80;99.90;;;;;;5057040;28;20202;-72
2021/05/25 08:05:40;;;;;;;2.83;0.63;;;12.60;99.90;;;;;;5059443;28;20211;-72
2021/05/25 08:08:08;;;;;;;1.00;0.50;;;12.60;99.90;;;;;;5064050;28;20203;-72
2021/05/25 08:10:36;;;;;;;0.63;0.40;;;12.40;99.90;;;;;;5060022;28;20201;-72
2021/05/25 08:13:03;;;;;;;1.93;0.90;;;12.30;99.90;;;;;;5065905;28;20269;-71
2021/05/25 08:15:31;;;;;;;0.53;0.40;;;12.70;99.90;;;;;;5062684;28;20199;-72
2021/05/25 08:18:13;;;;;;;1.67;0.60;;;12.90;99.90;;;;;;5064902;28;20211;-72
2021/05/25 08:20:40;;;;;;;0.30;0.30;;;13.30;99.90;;;;;;5066381;28;20639;-72
2021/05/25 08:23:10;;;;;;;0.67;0.37;;;12.90;99.90;;;;;;5067008;28;20222;-72
2021/05/25 08:25:38;;;;;;;0.37;0.30;;;13.00;99.90;;;;;;5059194;28;20613;-72
2021/05/25 08:28:06;;;;;;;1.80;0.53;;;12.90;99.90;;;;;;5060385;28;20203;-72
2021/05/25 08:30:36;;;;;;;2.93;0.67;;;12.80;99.90;;;;;;5063535;28;20213;-71
2021/05/25 08:33:03;;;;;;;1.17;0.70;;;12.90;99.90;;;;;;5059208;28;20256;-72
2021/05/25 08:35:34;;;;;;;0.70;0.50;;;12.80;99.90;;;;;;5055643;28;20203;-72
2021/05/25 08:38:01;;;;;;;3.80;0.70;;;12.90;99.90;;;;;;5063142;28;20206;-72
2021/05/25 08:40:29;;;;;;;1.60;0.40;;;13.20;99.90;;;;;;5067116;28;20256;-72
2021/05/25 08:42:57;;;;;;;0.77;0.50;;;13.10;99.90;;;;;;5065217;28;20210;-72
2021/05/25 08:45:24;;;;;;;0.33;0.27;;;13.30;99.90;;;;;;5061924;28;20202;-72
2021/05/25 08:47:52;;;;;;;0.90;0.40;;;14.10;99.90;;;;;;5061780;28;20206;-72
2021/05/25 08:50:21;;;;;;;1.00;0.20;;;14.10;99.90;;;;;;5061734;28;20199;-72
2021/05/25 08:52:48;;;;;;;1.70;0.43;;;14.50;99.90;;;;;;5060280;28;20632;-72
2021/05/25 08:55:15;;;;;;;0.50;0.23;;;14.10;99.90;;;;;;5059300;28;20562;-72
2021/05/25 08:57:41;;;;;;;0.63;0.27;;;13.50;99.90;;;;;;5060436;28;20293;-72
2021/05/25 09:00:11;;;;;;;1.07;0.20;;;12.40;99.90;;;;;;5057995;28;20255;-72
2021/05/25 09:02:37;;;;;;;0.57;0.20;;;11.70;99.90;;;;;;5065425;28;20205;-73
2021/05/25 09:05:06;;;;;;;1.27;0.30;;;11.20;99.90;;;;;;5066234;28;20209;-73
2021/05/25 09:07:42;;;;;;;0.43;0.20;;;11.00;99.90;;;;;;5059691;28;20620;-70
2021/05/25 09:10:14;;;;;;;0.20;0.00;;;10.70;99.90;;;;;;5062729;28;20203;-71
2021/05/25 09:12:42;;;;;;;1.10;0.10;;;10.30;99.90;;;;;;5058458;28;20589;-71
2021/05/25 09:15:10;;;;;;;0.23;0.00;;;10.50;99.90;;;;;;5055829;28;20617;-71
2021/05/25 09:17:37;;;;;;;0.10;0.10;;;10.60;99.90;;;;;;5059519;28;20203;-71
2021/05/25 09:20:06;;;;;;;0.23;0.10;;;10.70;99.90;;;;;;5060666;28;20203;-71
2021/05/25 09:22:37;;;;;;;13.03;0.97;;;10.90;99.90;;;;;;5061813;28;20559;-71
2021/05/25 09:25:13;;;;;;;0.37;0.20;;;11.50;99.90;;;;;;5061570;28;20211;-71
2021/05/25 09:27:41;;;;;;;0.10;0.10;;;12.30;99.90;;;;;;5062575;28;20559;-72
2021/05/25 09:30:20;;;;;;;1.63;0.23;;;12.90;99.90;;;;;;5059812;28;20297;-72
2021/05/25 09:32:53;;;;;;;0.70;0.30;;;13.10;99.90;;;;;;5060638;28;20256;-71
2021/05/25 09:35:22;;;;;;;0.20;0.20;;;13.40;99.90;;;;;;5065499;28;20202;-71
2021/05/25 09:37:50;;;;;;;0.50;0.40;;;13.60;99.90;;;;;;5063177;28;20202;-71
2021/05/25 09:40:18;;;;;;;0.40;0.40;;;13.70;99.90;;;;;;5068399;28;20502;-71
2021/05/25 09:42:46;;;;;;;0.37;0.30;;;14.00;99.90;;;;;;5067298;28;20241;-71
2021/05/25 09:45:15;;;;;;;0.20;0.20;;;14.20;99.90;;;;;;5064797;28;20202;-71
2021/05/25 09:47:44;;;;;;;0.30;0.23;;;14.40;99.90;;;;;;5061373;28;20216;-72
2021/05/25 09:50:12;;;;;;;1.40;0.50;;;14.30;99.90;;;;;;5063649;28;20206;-72
2021/05/25 09:53:00;;;;;;;0.93;0.40;;;14.00;99.90;;;;;;5060460;28;20211;-72
2021/05/25 09:55:27;;;;;;;1.40;0.20;;;13.40;99.90;;;;;;5058648;28;20199;-71
2021/05/25 09:57:55;;;;;;;0.20;0.20;;;12.70;99.90;;;;;;5062368;28;20205;-71
2021/05/25 10:00:30;;;;;;;0.30;0.10;;;12.40;99.90;;;;;;5057632;28;20675;-71
2021/05/25 10:03:13;;;;;;;0.20;0.10;;;12.40;99.90;;;;;;5063011;28;20202;-71
2021/05/25 10:05:41;;;;;;;0.20;0.20;;;12.50;99.90;;;;;;5065604;28;20198;-71
2021/05/25 10:08:08;;;;;;;0.33;0.20;;;12.30;99.90;;;;;;5068281;28;20205;-71
2021/05/25 10:10:36;;;;;;;0.10;0.10;;;12.30;99.90;;;;;;5058579;28;20202;-70
2021/05/25 10:13:03;;;;;;;0.10;0.10;;;12.20;99.90;;;;;;5070202;28;20225;-71
2021/05/25 10:15:30;;;;;;;0.20;0.10;;;13.10;99.90;;;;;;5070210;28;20199;-71
2021/05/25 10:20:39;;;;;;;0.77;0.20;;;14.10;99.90;;;;;;5027019;28;20241;-71
2021/05/25 10:23:06;;;;;;;0.30;0.30;;;14.50;99.90;;;;;;5053793;28;20255;-72
2021/05/25 10:25:34;;;;;;;0.57;0.43;;;14.80;99.90;;;;;;5058599;28;20199;-71
2021/05/25 10:28:06;;;;;;;0.27;0.20;;;15.30;99.90;;;;;;5050608;28;20217;-72
2021/05/25 10:30:41;;;;;;;1.20;0.30;;;15.10;99.90;;;;;;5067170;28;20203;-72
2021/05/25 10:33:22;;;;;;;0.40;0.40;;;15.70;99.90;;;;;;5071432;28;20222;-72
2021/05/25 10:35:55;;;;;;;0.50;0.50;;;16.40;99.90;;;;;;5068913;28;20210;-71
2021/05/25 10:38:23;;;;;;;0.67;0.67;;;16.30;99.90;;;;;;5071282;28;20217;-71
2021/05/25 10:40:52;;;;;;;0.60;0.47;;;14.20;99.90;;;;;;5062732;28;20203;-71
2021/05/25 10:43:46;;;;;;;1.57;0.40;;;13.50;99.90;;;;;;5066423;28;20211;-71
2021/05/25 10:46:29;;;;;;;1.60;0.43;;;12.20;99.90;;;;;;5066975;28;20212;-71
2021/05/25 10:49:10;;;;;;;0.57;0.57;;;11.70;99.90;;;;;;5062602;28;20643;-71
2021/05/25 10:52:10;;;;;;;0.30;0.30;;;11.30;99.90;;;;;;5065006;28;20695;-71
2021/05/25 10:54:50;;;;;;;1.50;0.70;;;11.00;99.90;;;;;;5060927;28;20356;-71
2021/05/25 10:57:46;;;;;;;3.03;0.90;;;10.80;99.90;;;;;;5067597;28;20236;-71
2021/05/25 11:00:15;;;;;;;0.40;0.40;;;10.90;99.90;;;;;;5068484;28;20650;-70
2021/05/25 11:02:54;;;;;;;0.60;0.60;;;10.90;99.90;;;;;;5063454;28;20259;-71
2021/05/25 11:05:48;;;;;;;0.80;0.80;;;11.10;99.90;;;;;;5063072;28;20678;-71
2021/05/25 11:08:40;;;;;;;0.63;0.63;;;11.20;99.90;;;;;;5066257;28;20203;-71
2021/05/25 11:11:14;;;;;;;1.13;0.87;;;11.30;99.90;;;;;;5066239;28;20260;-70
2021/05/25 11:13:48;;;;;;;1.00;0.90;;;11.80;99.90;;;;;;5067064;28;20235;-71
2021/05/25 11:16:17;;;;;;;2.37;0.93;;;12.20;99.90;;;;;;5060170;28;20210;-71
2021/05/25 11:18:48;;;;;;;0.70;0.70;;;12.70;99.90;;;;;;5061949;28;20293;-70
2021/05/25 11:21:45;;;;;;;0.80;0.80;;;13.40;99.90;;;;;;5069205;28;20761;-71
2021/05/25 11:24:30;;;;;;;0.40;0.40;;;13.60;99.90;;;;;;5066108;28;20642;-71
2021/05/25 11:27:04;;;;;;;0.23;0.23;;;14.30;99.90;;;;;;5061479;28;20652;-71
2021/05/25 11:29:31;;;;;;;0.40;0.40;;;14.50;99.90;;;;;;5070757;28;20202;-71
2021/05/25 11:32:03;;;;;;;0.20;0.20;;;14.90;99.90;;;;;;5071409;28;20579;-70
2021/05/25 11:34:30;;;;;;;0.90;0.40;;;15.30;99.90;;;;;;5070296;28;20581;-71
2021/05/25 11:37:03;;;;;;;1.13;0.50;;;14.70;99.90;;;;;;5068515;28;20199;-71
2021/05/25 11:39:32;;;;;;;0.97;0.50;;;14.80;99.90;;;;;;5067443;28;20238;-71
2021/05/25 11:41:59;;;;;;;0.70;0.70;;;15.00;99.90;;;;;;5069573;28;20238;-71
2021/05/25 11:44:38;;;;;;;0.60;0.60;;;15.90;99.90;;;;;;5072913;28;20656;-71
2021/05/25 11:47:06;;;;;;;0.40;0.40;;;15.70;99.90;;;;;;5057077;28;20217;-71
2021/05/25 11:49:35;;;;;;;0.40;0.30;;;15.40;99.90;;;;;;5050718;28;20661;-70
2021/05/25 11:52:20;;;;;;;1.17;0.30;;;15.10;99.90;;;;;;5060796;28;20210;-71
2021/05/25 11:54:47;;;;;;;0.40;0.40;;;14.50;99.90;;;;;;5061556;28;20225;-72
2021/05/25 11:57:28;;;;;;;0.73;0.40;;;14.00;99.90;;;;;;5044886;28;20207;-72
2021/05/25 11:59:56;;;;;;;1.17;0.90;;;13.20;99.90;;;;;;5063242;28;20211;-72
2021/05/25 12:02:24;;;;;;;1.37;0.70;;;13.30;99.90;;;;;;5065912;28;20907;-72
2021/05/25 12:05:05;;;;;;;2.20;0.70;;;12.90;99.90;;;;;;5067342;28;20206;-72
2021/05/25 12:07:31;;;;;;;0.63;0.60;;;12.20;99.90;;;;;;5064327;28;20199;-72
2021/05/25 12:10:01;;;;;;;3.07;1.50;;;11.90;99.90;;;;;;5064157;28;20213;-72
2021/05/25 12:12:29;;;;;;;2.93;1.37;;;11.90;99.90;;;;;;5060652;28;20226;-72
2021/05/25 12:14:59;;;;;;;6.80;0.90;;;11.60;99.90;;;;;;5067773;28;20206;-71
2021/05/25 12:17:27;;;;;;;0.80;0.80;;;11.00;99.90;;;;;;5058269;28;20214;-71
2021/05/25 12:20:02;;;;;;;1.67;1.10;;;10.50;99.90;;;;;;5056201;28;20244;-72
2021/05/25 12:22:33;;;;;;;2.80;1.07;;;9.90;99.90;;;;;;5065938;28;20197;-72
2021/05/25 12:25:16;;;;;;;5.10;1.60;;;9.60;99.90;;;;;;5065047;28;20274;-71
2021/05/25 12:27:43;;;;;;;7.13;1.60;;;9.50;99.90;;;;;;5067320;28;20687;-71
2021/05/25 12:30:11;;;;;;;3.27;1.37;;;9.90;99.90;;;;;;5061168;28;20214;-71
2021/05/25 12:32:37;;;;;;;2.67;1.30;;;9.60;99.90;;;;;;5064555;28;20208;-72
2021/05/25 12:35:06;;;;;;;4.43;1.60;;;10.10;99.90;;;;;;5066514;28;20233;-72
2021/05/25 12:37:32;;;;;;;2.83;1.33;;;10.50;99.90;;;;;;5063393;28;20276;-73
2021/05/25 12:40:04;;;;;;;3.13;1.60;;;10.60;99.90;;;;;;5064978;28;20649;-72
2021/05/25 12:42:36;;;;;;;4.37;1.53;;;10.70;99.90;;;;;;5070452;28;20611;-72
2021/05/25 12:45:11;;;;;;;4.53;3.47;;;10.80;99.90;;;;;;5066216;28;20609;-72
2021/05/25 12:47:54;;;;;;;4.63;3.27;;;10.60;99.90;;;;;;5067264;28;20428;-72
2021/05/25 12:50:31;;;;;;;2.97;2.13;;;11.30;99.90;;;;;;5062818;28;20405;-72
2021/05/25 12:53:06;;;;;;;1.20;1.20;;;11.90;99.90;;;;;;5047204;28;20475;-73
2021/05/25 12:55:33;;;;;;;0.90;0.90;;;12.30;99.90;;;;;;5057666;28;20220;-73
2021/05/25 12:57:59;;;;;;;1.00;1.00;;;12.60;99.90;;;;;;5062159;28;20210;-73
2021/05/25 13:00:28;;;;;;;1.37;1.27;;;12.80;99.90;;;;;;5061854;28;20206;-73
2021/05/25 13:02:55;;;;;;;1.33;1.23;;;13.10;99.90;;;;;;5062775;28;20201;-73